sensor_id;sensor_type;location;lat;lon;timestamp;temperature;humidity
20182;DHT22;10250;50.756;6.172;2023-12-20T00:00:12;7.30;99.90
20182;DHT22;10250;50.756;6.172;2023-12-20T00:02:12;7.30;99.90
20182;DHT22;10250;50.756;6.172;2023-12-20T00:04:13;7.30;99.90
20182;DHT22;10250;50.756;6.172;2023-12-20T00:06:14;7.30;99.90
20182;DHT22;10250;50.756;6.172;2023-12-20T00:08:14;7.30;99.90
20182;DHT22;10250;50.756;6.172;2023-12-20T00:10:15;7.30;99.90
20182;DHT22;10250;50.756;6.172;2023-12-20T00:12:15;7.40;99.90
20182;DHT22;10250;50.756;6.172;2023-12-20T00:14:16;7.30;99.90
20182;DHT22;10250;50.756;6.172;2023-12-20T00:16:16;7.30;99.90
20182;DHT22;10250;50.756;6.172;2023-12-20T00:18:17;7.20;99.90
20182;DHT22;10250;50.756;6.172;2023-12-20T00:20:18;7.30;99.90
20182;DHT22;10250;50.756;6.172;2023-12-20T00:22:18;7.30;99.90
20182;DHT22;10250;50.756;6.172;2023-12-20T00:24:19;7.30;99.90
20182;DHT22;10250;50.756;6.172;2023-12-20T00:26:19;7.20;99.90
20182;DHT22;10250;50.756;6.172;2023-12-20T00:28:20;7.20;99.90
20182;DHT22;10250;50.756;6.172;2023-12-20T00:30:20;7.10;99.90
20182;DHT22;10250;50.756;6.172;2023-12-20T00:32:21;7.10;99.90
20182;DHT22;10250;50.756;6.172;2023-12-20T00:34:21;7.10;99.90
20182;DHT22;10250;50.756;6.172;2023-12-20T00:36:22;7.10;99.90
20182;DHT22;10250;50.756;6.172;2023-12-20T00:38:23;7.10;99.90
20182;DHT22;10250;50.756;6.172;2023-12-20T00:40:23;7.10;99.90
20182;DHT22;10250;50.756;6.172;2023-12-20T00:42:24;7.10;99.90
20182;DHT22;10250;50.756;6.172;2023-12-20T00:44:24;7.10;99.90
20182;DHT22;10250;50.756;6.172;2023-12-20T00:46:25;7.10;99.90
20182;DHT22;10250;50.756;6.172;2023-12-20T00:48:26;7.20;99.90
20182;DHT22;10250;50.756;6.172;2023-12-20T00:50:31;7.10;99.90
20182;DHT22;10250;50.756;6.172;2023-12-20T00:52:32;7.10;99.90
20182;DHT22;10250;50.756;6.172;2023-12-20T00:54:32;7.00;99.90
20182;DHT22;10250;50.756;6.172;2023-12-20T00:56:33;7.00;99.90
20182;DHT22;10250;50.756;6.172;2023-12-20T00:58:33;7.00;99.90
20182;DHT22;10250;50.756;6.172;2023-12-20T01:00:34;7.00;99.90
20182;DHT22;10250;50.756;6.172;2023-12-20T01:02:35;6.90;99.90
20182;DHT22;10250;50.756;6.172;2023-12-20T01:04:35;6.80;99.90
20182;DHT22;10250;50.756;6.172;2023-12-20T01:06:36;6.70;99.90
20182;DHT22;10250;50.756;6.172;2023-12-20T01:08:37;6.70;99.90
20182;DHT22;10250;50.756;6.172;2023-12-20T01:10:38;6.60;99.90
20182;DHT22;10250;50.756;6.172;2023-12-20T01:12:38;6.50;99.90
20182;DHT22;10250;50.756;6.172;2023-12-20T01:14:39;6.50;99.90
20182;DHT22;10250;50.756;6.172;2023-12-20T01:16:40;6.60;99.90
20182;DHT22;10250;50.756;6.172;2023-12-20T01:18:40;6.40;99.90
20182;DHT22;10250;50.756;6.172;2023-12-20T01:20:41;6.50;99.90
20182;DHT22;10250;50.756;6.172;2023-12-20T01:22:41;6.40;99.90
20182;DHT22;10250;50.756;6.172;2023-12-20T01:24:43;6.50;99.90
20182;DHT22;10250;50.756;6.172;2023-12-20T01:26:43;6.40;99.90
20182;DHT22;10250;50.756;6.172;2023-12-20T01:28:44;6.30;99.90
20182;DHT22;10250;50.756;6.172;2023-12-20T01:30:44;6.20;99.90
20182;DHT22;10250;50.756;6.172;2023-12-20T01:32:45;6.20;99.90
20182;DHT22;10250;50.756;6.172;2023-12-20T01:34:46;6.20;99.90
20182;DHT22;10250;50.756;6.172;2023-12-20T01:36:46;6.20;99.90
20182;DHT22;10250;50.756;6.172;2023-12-20T01:38:47;6.20;99.90
20182;DHT22;10250;50.756;6.172;2023-12-20T01:40:47;6.20;99.90
20182;DHT22;10250;50.756;6.172;2023-12-20T01:42:58;6.20;99.90
20182;DHT22;10250;50.756;6.172;2023-12-20T01:44:59;6.30;99.90
20182;DHT22;10250;50.756;6.172;2023-12-20T01:47:00;6.30;99.90
20182;DHT22;10250;50.756;6.172;2023-12-20T01:49:01;6.30;99.90
20182;DHT22;10250;50.756;6.172;2023-12-20T01:51:02;6.30;99.90
20182;DHT22;10250;50.756;6.172;2023-12-20T01:53:04;6.30;99.90
20182;DHT22;10250;50.756;6.172;2023-12-20T01:55:06;6.20;99.90
20182;DHT22;10250;50.756;6.172;2023-12-20T01:57:13;6.20;99.90
20182;DHT22;10250;50.756;6.172;2023-12-20T01:59:14;6.20;99.90
20182;DHT22;10250;50.756;6.172;2023-12-20T02:01:15;6.30;99.90
20182;DHT22;10250;50.756;6.172;2023-12-20T02:03:16;6.30;99.90
20182;DHT22;10250;50.756;6.172;2023-12-20T02:05:18;6.20;99.90
20182;DHT22;10250;50.756;6.172;2023-12-20T02:07:20;6.20;99.90
20182;DHT22;10250;50.756;6.172;2023-12-20T02:09:22;6.20;99.90
20182;DHT22;10250;50.756;6.172;2023-12-20T02:11:23;6.20;99.90
20182;DHT22;10250;50.756;6.172;2023-12-20T02:13:23;6.20;99.90
20182;DHT22;10250;50.756;6.172;2023-12-20T02:15:24;6.30;99.90
20182;DHT22;10250;50.756;6.172;2023-12-20T02:17:25;6.30;99.90
20182;DHT22;10250;50.756;6.172;2023-12-20T02:19:26;6.20;99.90
20182;DHT22;10250;50.756;6.172;2023-12-20T02:21:33;6.20;99.90
20182;DHT22;10250;50.756;6.172;2023-12-20T02:23:35;6.30;99.90
20182;DHT22;10250;50.756;6.172;2023-12-20T02:25:35;6.20;99.90
20182;DHT22;10250;50.756;6.172;2023-12-20T02:27:36;6.20;99.90
20182;DHT22;10250;50.756;6.172;2023-12-20T02:29:37;6.30;99.90
20182;DHT22;10250;50.756;6.172;2023-12-20T02:31:37;6.30;99.90
20182;DHT22;10250;50.756;6.172;2023-12-20T02:33:38;6.30;99.90
20182;DHT22;10250;50.756;6.172;2023-12-20T02:35:40;6.30;99.90
20182;DHT22;10250;50.756;6.172;2023-12-20T02:37:40;6.20;99.90
20182;DHT22;10250;50.756;6.172;2023-12-20T02:39:41;6.20;99.90
20182;DHT22;10250;50.756;6.172;2023-12-20T02:41:41;6.20;99.90
20182;DHT22;10250;50.756;6.172;2023-12-20T02:43:42;6.20;99.90
20182;DHT22;10250;50.756;6.172;2023-12-20T02:45:42;6.10;99.90
20182;DHT22;10250;50.756;6.172;2023-12-20T02:47:43;6.20;99.90
20182;DHT22;10250;50.756;6.172;2023-12-20T02:49:44;6.20;99.90
20182;DHT22;10250;50.756;6.172;2023-12-20T02:51:44;6.20;99.90
20182;DHT22;10250;50.756;6.172;2023-12-20T02:53:45;6.20;99.90
20182;DHT22;10250;50.756;6.172;2023-12-20T02:55:45;6.10;99.90
20182;DHT22;10250;50.756;6.172;2023-12-20T02:57:46;6.20;99.90
20182;DHT22;10250;50.756;6.172;2023-12-20T02:59:46;6.20;99.90
20182;DHT22;10250;50.756;6.172;2023-12-20T03:01:47;6.20;99.90
20182;DHT22;10250;50.756;6.172;2023-12-20T03:03:47;6.10;99.90
20182;DHT22;10250;50.756;6.172;2023-12-20T03:05:48;6.10;99.90
20182;DHT22;10250;50.756;6.172;2023-12-20T03:07:48;6.10;99.90
20182;DHT22;10250;50.756;6.172;2023-12-20T03:09:49;6.00;99.90
20182;DHT22;10250;50.756;6.172;2023-12-20T03:11:49;6.10;99.90
20182;DHT22;10250;50.756;6.172;2023-12-20T03:13:50;6.00;99.90
20182;DHT22;10250;50.756;6.172;2023-12-20T03:15:50;6.00;99.90
20182;DHT22;10250;50.756;6.172;2023-12-20T03:17:51;6.10;99.90
20182;DHT22;10250;50.756;6.172;2023-12-20T03:19:51;6.20;99.90
20182;DHT22;10250;50.756;6.172;2023-12-20T03:21:52;6.20;99.90
20182;DHT22;10250;50.756;6.172;2023-12-20T03:23:53;6.10;99.90
20182;DHT22;10250;50.756;6.172;2023-12-20T03:25:54;6.00;99.90
20182;DHT22;10250;50.756;6.172;2023-12-20T03:27:55;6.00;99.90
20182;DHT22;10250;50.756;6.172;2023-12-20T03:29:55;6.00;99.90
20182;DHT22;10250;50.756;6.172;2023-12-20T03:31:56;6.10;99.90
20182;DHT22;10250;50.756;6.172;2023-12-20T03:33:56;6.00;99.90
20182;DHT22;10250;50.756;6.172;2023-12-20T03:35:57;6.10;99.90
20182;DHT22;10250;50.756;6.172;2023-12-20T03:37:58;6.00;99.90
20182;DHT22;10250;50.756;6.172;2023-12-20T03:40:00;6.00;99.90
20182;DHT22;10250;50.756;6.172;2023-12-20T03:42:01;6.00;99.90
20182;DHT22;10250;50.756;6.172;2023-12-20T03:44:01;6.00;99.90
20182;DHT22;10250;50.756;6.172;2023-12-20T03:46:03;5.90;99.90
20182;DHT22;10250;50.756;6.172;2023-12-20T03:48:04;6.00;99.90
20182;DHT22;10250;50.756;6.172;2023-12-20T03:50:06;6.00;99.90
20182;DHT22;10250;50.756;6.172;2023-12-20T03:52:07;6.00;99.90
20182;DHT22;10250;50.756;6.172;2023-12-20T03:54:07;6.00;99.90
20182;DHT22;10250;50.756;6.172;2023-12-20T03:56:08;6.00;99.90
20182;DHT22;10250;50.756;6.172;2023-12-20T03:58:09;6.00;99.90
20182;DHT22;10250;50.756;6.172;2023-12-20T04:00:10;6.00;99.90
20182;DHT22;10250;50.756;6.172;2023-12-20T04:02:11;5.90;99.90
20182;DHT22;10250;50.756;6.172;2023-12-20T04:04:13;5.90;99.90
20182;DHT22;10250;50.756;6.172;2023-12-20T04:06:19;5.90;99.90
20182;DHT22;10250;50.756;6.172;2023-12-20T04:08:20;5.90;99.90
20182;DHT22;10250;50.756;6.172;2023-12-20T04:10:21;6.00;99.90
20182;DHT22;10250;50.756;6.172;2023-12-20T04:12:21;5.90;99.90
20182;DHT22;10250;50.756;6.172;2023-12-20T04:14:22;5.90;99.90
20182;DHT22;10250;50.756;6.172;2023-12-20T04:16:23;5.90;99.90
20182;DHT22;10250;50.756;6.172;2023-12-20T04:18:23;5.90;99.90
20182;DHT22;10250;50.756;6.172;2023-12-20T04:20:24;5.90;99.90
20182;DHT22;10250;50.756;6.172;2023-12-20T04:22:24;5.80;99.90
20182;DHT22;10250;50.756;6.172;2023-12-20T04:24:25;5.90;99.90
20182;DHT22;10250;50.756;6.172;2023-12-20T04:26:25;5.90;99.90
20182;DHT22;10250;50.756;6.172;2023-12-20T04:28:26;5.90;99.90
20182;DHT22;10250;50.756;6.172;2023-12-20T04:30:26;5.90;99.90
20182;DHT22;10250;50.756;6.172;2023-12-20T04:32:27;5.90;99.90
20182;DHT22;10250;50.756;6.172;2023-12-20T04:34:27;5.90;99.90
20182;DHT22;10250;50.756;6.172;2023-12-20T04:36:28;5.90;99.90
20182;DHT22;10250;50.756;6.172;2023-12-20T04:38:30;5.80;99.90
20182;DHT22;10250;50.756;6.172;2023-12-20T04:40:30;5.80;99.90
20182;DHT22;10250;50.756;6.172;2023-12-20T04:42:31;5.90;99.90
20182;DHT22;10250;50.756;6.172;2023-12-20T04:44:31;5.80;99.90
20182;DHT22;10250;50.756;6.172;2023-12-20T04:46:32;5.80;99.90
20182;DHT22;10250;50.756;6.172;2023-12-20T04:48:33;5.80;99.90
20182;DHT22;10250;50.756;6.172;2023-12-20T04:50:33;5.80;99.90
20182;DHT22;10250;50.756;6.172;2023-12-20T04:52:34;5.90;99.90
20182;DHT22;10250;50.756;6.172;2023-12-20T04:54:35;5.90;99.90
20182;DHT22;10250;50.756;6.172;2023-12-20T04:56:35;5.90;99.90
20182;DHT22;10250;50.756;6.172;2023-12-20T04:58:36;6.00;99.90
20182;DHT22;10250;50.756;6.172;2023-12-20T05:00:36;5.90;99.90
20182;DHT22;10250;50.756;6.172;2023-12-20T05:02:37;5.90;99.90
20182;DHT22;10250;50.756;6.172;2023-12-20T05:04:38;5.90;99.90
20182;DHT22;10250;50.756;6.172;2023-12-20T05:06:38;6.00;99.90
20182;DHT22;10250;50.756;6.172;2023-12-20T05:08:39;5.90;99.90
20182;DHT22;10250;50.756;6.172;2023-12-20T05:10:39;5.90;99.90
20182;DHT22;10250;50.756;6.172;2023-12-20T05:12:40;5.90;99.90
20182;DHT22;10250;50.756;6.172;2023-12-20T05:14:41;5.90;99.90
20182;DHT22;10250;50.756;6.172;2023-12-20T05:16:41;5.90;99.90
20182;DHT22;10250;50.756;6.172;2023-12-20T05:18:42;5.90;99.90
20182;DHT22;10250;50.756;6.172;2023-12-20T05:20:43;5.80;99.90
20182;DHT22;10250;50.756;6.172;2023-12-20T05:22:43;5.90;99.90
20182;DHT22;10250;50.756;6.172;2023-12-20T05:24:45;5.90;99.90
20182;DHT22;10250;50.756;6.172;2023-12-20T05:26:46;5.90;99.90
20182;DHT22;10250;50.756;6.172;2023-12-20T05:28:46;5.90;99.90
20182;DHT22;10250;50.756;6.172;2023-12-20T05:30:47;5.90;99.90
20182;DHT22;10250;50.756;6.172;2023-12-20T05:32:47;5.80;99.90
20182;DHT22;10250;50.756;6.172;2023-12-20T05:34:48;5.80;99.90
20182;DHT22;10250;50.756;6.172;2023-12-20T05:36:48;5.80;99.90
20182;DHT22;10250;50.756;6.172;2023-12-20T05:38:49;5.80;99.90
20182;DHT22;10250;50.756;6.172;2023-12-20T05:40:50;5.80;99.90
20182;DHT22;10250;50.756;6.172;2023-12-20T05:42:50;5.80;99.90
20182;DHT22;10250;50.756;6.172;2023-12-20T05:44:51;5.80;99.90
20182;DHT22;10250;50.756;6.172;2023-12-20T05:46:51;5.80;99.90
20182;DHT22;10250;50.756;6.172;2023-12-20T05:48:52;5.80;99.90
20182;DHT22;10250;50.756;6.172;2023-12-20T05:50:52;5.90;99.90
20182;DHT22;10250;50.756;6.172;2023-12-20T05:52:53;6.00;99.90
20182;DHT22;10250;50.756;6.172;2023-12-20T05:54:54;5.80;99.90
20182;DHT22;10250;50.756;6.172;2023-12-20T05:56:56;6.00;99.90
20182;DHT22;10250;50.756;6.172;2023-12-20T05:58:56;5.90;99.90
20182;DHT22;10250;50.756;6.172;2023-12-20T06:00:57;5.90;99.90
20182;DHT22;10250;50.756;6.172;2023-12-20T06:02:58;6.00;99.90
20182;DHT22;10250;50.756;6.172;2023-12-20T06:04:58;6.00;99.90
20182;DHT22;10250;50.756;6.172;2023-12-20T06:06:59;5.90;99.90
20182;DHT22;10250;50.756;6.172;2023-12-20T06:09:00;5.80;99.90
20182;DHT22;10250;50.756;6.172;2023-12-20T06:11:00;5.80;99.90
20182;DHT22;10250;50.756;6.172;2023-12-20T06:13:01;5.70;99.90
20182;DHT22;10250;50.756;6.172;2023-12-20T06:15:02;5.70;99.90
20182;DHT22;10250;50.756;6.172;2023-12-20T06:17:03;5.70;99.90
20182;DHT22;10250;50.756;6.172;2023-12-20T06:19:03;5.70;99.90
20182;DHT22;10250;50.756;6.172;2023-12-20T06:21:04;5.70;99.90
20182;DHT22;10250;50.756;6.172;2023-12-20T06:23:05;5.70;99.90
20182;DHT22;10250;50.756;6.172;2023-12-20T06:25:05;5.80;99.90
20182;DHT22;10250;50.756;6.172;2023-12-20T06:27:07;5.80;99.90
20182;DHT22;10250;50.756;6.172;2023-12-20T06:29:08;5.80;99.90
20182;DHT22;10250;50.756;6.172;2023-12-20T06:31:09;5.70;99.90
20182;DHT22;10250;50.756;6.172;2023-12-20T06:33:09;5.70;99.90
20182;DHT22;10250;50.756;6.172;2023-12-20T06:35:11;5.80;99.90
20182;DHT22;10250;50.756;6.172;2023-12-20T06:37:12;5.70;99.90
20182;DHT22;10250;50.756;6.172;2023-12-20T06:39:12;5.70;99.90
20182;DHT22;10250;50.756;6.172;2023-12-20T06:41:15;5.70;99.90
20182;DHT22;10250;50.756;6.172;2023-12-20T06:43:16;5.80;99.90
20182;DHT22;10250;50.756;6.172;2023-12-20T06:45:17;5.80;99.90
20182;DHT22;10250;50.756;6.172;2023-12-20T06:47:17;5.80;99.90
20182;DHT22;10250;50.756;6.172;2023-12-20T06:49:18;5.90;99.90
20182;DHT22;10250;50.756;6.172;2023-12-20T06:51:19;5.80;99.90
20182;DHT22;10250;50.756;6.172;2023-12-20T06:53:20;5.80;99.90
20182;DHT22;10250;50.756;6.172;2023-12-20T06:55:21;5.70;99.90
20182;DHT22;10250;50.756;6.172;2023-12-20T06:57:21;5.70;99.90
20182;DHT22;10250;50.756;6.172;2023-12-20T06:59:22;5.70;99.90
20182;DHT22;10250;50.756;6.172;2023-12-20T07:01:22;5.70;99.90
20182;DHT22;10250;50.756;6.172;2023-12-20T07:03:23;5.70;99.90
20182;DHT22;10250;50.756;6.172;2023-12-20T07:05:24;5.70;99.90
20182;DHT22;10250;50.756;6.172;2023-12-20T07:07:25;5.60;99.90
20182;DHT22;10250;50.756;6.172;2023-12-20T07:09:26;5.50;99.90
20182;DHT22;10250;50.756;6.172;2023-12-20T07:11:26;5.50;99.90
20182;DHT22;10250;50.756;6.172;2023-12-20T07:13:27;5.60;99.90
20182;DHT22;10250;50.756;6.172;2023-12-20T07:15:28;5.60;99.90
20182;DHT22;10250;50.756;6.172;2023-12-20T07:17:29;5.60;99.90
20182;DHT22;10250;50.756;6.172;2023-12-20T07:19:30;5.60;99.90
20182;DHT22;10250;50.756;6.172;2023-12-20T07:21:31;5.60;99.90
20182;DHT22;10250;50.756;6.172;2023-12-20T07:23:31;5.50;99.90
20182;DHT22;10250;50.756;6.172;2023-12-20T07:25:32;5.60;99.90
20182;DHT22;10250;50.756;6.172;2023-12-20T07:27:33;5.70;99.90
20182;DHT22;10250;50.756;6.172;2023-12-20T07:29:33;5.60;99.90
20182;DHT22;10250;50.756;6.172;2023-12-20T07:31:34;5.60;99.90
20182;DHT22;10250;50.756;6.172;2023-12-20T07:33:35;5.60;99.90
20182;DHT22;10250;50.756;6.172;2023-12-20T07:35:35;5.60;99.90
20182;DHT22;10250;50.756;6.172;2023-12-20T07:37:36;5.60;99.90
20182;DHT22;10250;50.756;6.172;2023-12-20T07:39:37;5.60;99.90
20182;DHT22;10250;50.756;6.172;2023-12-20T07:41:38;5.60;99.90
20182;DHT22;10250;50.756;6.172;2023-12-20T07:43:38;5.70;99.90
20182;DHT22;10250;50.756;6.172;2023-12-20T07:45:39;5.60;99.90
20182;DHT22;10250;50.756;6.172;2023-12-20T07:47:40;5.60;99.90
20182;DHT22;10250;50.756;6.172;2023-12-20T07:49:41;5.50;99.90
20182;DHT22;10250;50.756;6.172;2023-12-20T07:51:41;5.70;99.90
20182;DHT22;10250;50.756;6.172;2023-12-20T07:53:42;5.70;99.90
20182;DHT22;10250;50.756;6.172;2023-12-20T07:55:42;5.60;99.90
20182;DHT22;10250;50.756;6.172;2023-12-20T07:57:43;5.70;99.90
20182;DHT22;10250;50.756;6.172;2023-12-20T07:59:44;5.70;99.90
20182;DHT22;10250;50.756;6.172;2023-12-20T08:01:44;5.60;99.90
20182;DHT22;10250;50.756;6.172;2023-12-20T08:03:45;5.60;99.90
20182;DHT22;10250;50.756;6.172;2023-12-20T08:05:46;5.50;99.90
20182;DHT22;10250;50.756;6.172;2023-12-20T08:07:47;5.50;99.90
20182;DHT22;10250;50.756;6.172;2023-12-20T08:09:48;5.60;99.90
20182;DHT22;10250;50.756;6.172;2023-12-20T08:11:49;5.50;99.90
20182;DHT22;10250;50.756;6.172;2023-12-20T08:13:49;5.50;99.90
20182;DHT22;10250;50.756;6.172;2023-12-20T08:15:50;5.50;99.90
20182;DHT22;10250;50.756;6.172;2023-12-20T08:17:51;5.50;99.90
20182;DHT22;10250;50.756;6.172;2023-12-20T08:19:51;5.50;99.90
20182;DHT22;10250;50.756;6.172;2023-12-20T08:21:52;5.40;99.90
20182;DHT22;10250;50.756;6.172;2023-12-20T08:23:52;5.40;99.90
20182;DHT22;10250;50.756;6.172;2023-12-20T08:25:53;5.40;99.90
20182;DHT22;10250;50.756;6.172;2023-12-20T08:27:54;5.40;99.90
20182;DHT22;10250;50.756;6.172;2023-12-20T08:29:54;5.40;99.90
20182;DHT22;10250;50.756;6.172;2023-12-20T08:31:55;5.40;99.90
20182;DHT22;10250;50.756;6.172;2023-12-20T08:33:56;5.40;99.90
20182;DHT22;10250;50.756;6.172;2023-12-20T08:35:57;5.50;99.90
20182;DHT22;10250;50.756;6.172;2023-12-20T08:37:58;5.50;99.90
20182;DHT22;10250;50.756;6.172;2023-12-20T08:39:58;5.50;99.90
20182;DHT22;10250;50.756;6.172;2023-12-20T08:41:59;5.50;99.90
20182;DHT22;10250;50.756;6.172;2023-12-20T08:44:03;5.50;99.90
20182;DHT22;10250;50.756;6.172;2023-12-20T08:46:04;5.60;99.90
20182;DHT22;10250;50.756;6.172;2023-12-20T08:48:04;5.60;99.90
20182;DHT22;10250;50.756;6.172;2023-12-20T08:50:05;5.60;99.90
20182;DHT22;10250;50.756;6.172;2023-12-20T08:52:06;5.60;99.90
20182;DHT22;10250;50.756;6.172;2023-12-20T08:54:07;5.60;99.90
20182;DHT22;10250;50.756;6.172;2023-12-20T08:56:10;5.60;99.90
20182;DHT22;10250;50.756;6.172;2023-12-20T08:58:11;5.60;99.90
20182;DHT22;10250;50.756;6.172;2023-12-20T09:00:12;5.60;99.90
20182;DHT22;10250;50.756;6.172;2023-12-20T09:02:14;5.60;99.90
20182;DHT22;10250;50.756;6.172;2023-12-20T09:04:14;5.50;99.90
20182;DHT22;10250;50.756;6.172;2023-12-20T09:06:15;5.60;99.90
20182;DHT22;10250;50.756;6.172;2023-12-20T09:08:16;5.70;99.90
20182;DHT22;10250;50.756;6.172;2023-12-20T09:10:16;5.70;99.90
20182;DHT22;10250;50.756;6.172;2023-12-20T09:12:22;5.70;99.90
20182;DHT22;10250;50.756;6.172;2023-12-20T09:14:22;5.70;99.90
20182;DHT22;10250;50.756;6.172;2023-12-20T09:16:23;5.70;99.90
20182;DHT22;10250;50.756;6.172;2023-12-20T09:18:24;5.80;99.90
20182;DHT22;10250;50.756;6.172;2023-12-20T09:20:24;5.80;99.90
20182;DHT22;10250;50.756;6.172;2023-12-20T09:22:25;5.80;99.90
20182;DHT22;10250;50.756;6.172;2023-12-20T09:24:26;5.80;99.90
20182;DHT22;10250;50.756;6.172;2023-12-20T09:26:26;5.80;99.90
20182;DHT22;10250;50.756;6.172;2023-12-20T09:28:27;5.80;99.90
20182;DHT22;10250;50.756;6.172;2023-12-20T09:30:27;5.70;99.90
20182;DHT22;10250;50.756;6.172;2023-12-20T09:32:29;5.70;99.90
20182;DHT22;10250;50.756;6.172;2023-12-20T09:34:30;5.70;99.90
20182;DHT22;10250;50.756;6.172;2023-12-20T09:36:30;5.70;99.90
20182;DHT22;10250;50.756;6.172;2023-12-20T09:38:34;5.70;99.90
20182;DHT22;10250;50.756;6.172;2023-12-20T09:40:36;5.70;99.90
20182;DHT22;10250;50.756;6.172;2023-12-20T09:42:58;5.70;99.90
20182;DHT22;10250;50.756;6.172;2023-12-20T09:45:00;5.70;99.90
20182;DHT22;10250;50.756;6.172;2023-12-20T09:47:04;5.80;99.90
20182;DHT22;10250;50.756;6.172;2023-12-20T09:49:06;5.70;99.90
20182;DHT22;10250;50.756;6.172;2023-12-20T09:51:06;5.70;99.90
20182;DHT22;10250;50.756;6.172;2023-12-20T09:53:08;5.70;99.90
20182;DHT22;10250;50.756;6.172;2023-12-20T09:55:10;5.80;99.90
20182;DHT22;10250;50.756;6.172;2023-12-20T09:57:10;5.80;99.90
20182;DHT22;10250;50.756;6.172;2023-12-20T09:59:11;5.80;99.90
20182;DHT22;10250;50.756;6.172;2023-12-20T10:01:12;5.80;99.90
20182;DHT22;10250;50.756;6.172;2023-12-20T10:03:14;5.80;99.90
20182;DHT22;10250;50.756;6.172;2023-12-20T10:05:16;5.80;99.90
20182;DHT22;10250;50.756;6.172;2023-12-20T10:07:20;5.80;99.90
20182;DHT22;10250;50.756;6.172;2023-12-20T10:09:22;5.80;99.90
20182;DHT22;10250;50.756;6.172;2023-12-20T10:11:24;5.80;99.90
20182;DHT22;10250;50.756;6.172;2023-12-20T10:13:25;5.90;99.90
20182;DHT22;10250;50.756;6.172;2023-12-20T10:15:26;5.90;99.90
20182;DHT22;10250;50.756;6.172;2023-12-20T10:17:27;6.00;99.90
20182;DHT22;10250;50.756;6.172;2023-12-20T10:19:29;6.00;99.90
20182;DHT22;10250;50.756;6.172;2023-12-20T10:21:30;6.00;99.90
20182;DHT22;10250;50.756;6.172;2023-12-20T10:23:31;6.10;99.90
20182;DHT22;10250;50.756;6.172;2023-12-20T10:25:32;6.10;99.90
20182;DHT22;10250;50.756;6.172;2023-12-20T10:27:33;6.20;99.90
20182;DHT22;10250;50.756;6.172;2023-12-20T10:29:38;6.20;99.90
20182;DHT22;10250;50.756;6.172;2023-12-20T10:31:38;6.10;99.90
20182;DHT22;10250;50.756;6.172;2023-12-20T10:33:40;6.10;99.90
20182;DHT22;10250;50.756;6.172;2023-12-20T10:35:41;6.00;99.90
20182;DHT22;10250;50.756;6.172;2023-12-20T10:37:42;6.00;99.90
20182;DHT22;10250;50.756;6.172;2023-12-20T10:39:43;6.10;99.90
20182;DHT22;10250;50.756;6.172;2023-12-20T10:41:44;6.10;99.90
20182;DHT22;10250;50.756;6.172;2023-12-20T10:43:46;6.10;99.90
20182;DHT22;10250;50.756;6.172;2023-12-20T10:45:47;6.10;99.90
20182;DHT22;10250;50.756;6.172;2023-12-20T10:47:50;6.10;99.90
20182;DHT22;10250;50.756;6.172;2023-12-20T10:49:52;6.10;99.90
20182;DHT22;10250;50.756;6.172;2023-12-20T10:51:54;6.10;99.90
20182;DHT22;10250;50.756;6.172;2023-12-20T10:53:57;6.20;99.90
20182;DHT22;10250;50.756;6.172;2023-12-20T10:56:00;6.20;99.90
20182;DHT22;10250;50.756;6.172;2023-12-20T10:58:13;6.20;99.90
20182;DHT22;10250;50.756;6.172;2023-12-20T11:00:16;6.10;99.90
20182;DHT22;10250;50.756;6.172;2023-12-20T11:02:18;6.20;99.90
20182;DHT22;10250;50.756;6.172;2023-12-20T11:04:23;6.30;99.90
20182;DHT22;10250;50.756;6.172;2023-12-20T11:08:46;6.30;99.90
20182;DHT22;10250;50.756;6.172;2023-12-20T11:11:09;6.30;99.90
20182;DHT22;10250;50.756;6.172;2023-12-20T11:13:20;6.20;99.90
20182;DHT22;10250;50.756;6.172;2023-12-20T11:15:22;6.20;99.90
20182;DHT22;10250;50.756;6.172;2023-12-20T11:17:26;6.20;99.90
20182;DHT22;10250;50.756;6.172;2023-12-20T11:19:27;6.10;99.90
20182;DHT22;10250;50.756;6.172;2023-12-20T11:21:29;6.10;99.90
20182;DHT22;10250;50.756;6.172;2023-12-20T11:23:31;6.10;99.90
20182;DHT22;10250;50.756;6.172;2023-12-20T11:25:46;6.10;99.90
20182;DHT22;10250;50.756;6.172;2023-12-20T11:28:07;6.20;99.90
20182;DHT22;10250;50.756;6.172;2023-12-20T11:30:09;6.20;99.90
20182;DHT22;10250;50.756;6.172;2023-12-20T11:34:31;6.10;99.90
20182;DHT22;10250;50.756;6.172;2023-12-20T11:36:33;6.20;99.90
20182;DHT22;10250;50.756;6.172;2023-12-20T11:38:37;6.20;99.90
20182;DHT22;10250;50.756;6.172;2023-12-20T11:40:38;6.20;99.90
20182;DHT22;10250;50.756;6.172;2023-12-20T11:42:41;6.20;99.90
20182;DHT22;10250;50.756;6.172;2023-12-20T11:44:42;6.20;99.90
20182;DHT22;10250;50.756;6.172;2023-12-20T11:46:44;6.20;99.90
20182;DHT22;10250;50.756;6.172;2023-12-20T11:48:45;6.20;99.90
20182;DHT22;10250;50.756;6.172;2023-12-20T11:50:46;6.20;99.90
20182;DHT22;10250;50.756;6.172;2023-12-20T11:52:47;6.30;99.90
20182;DHT22;10250;50.756;6.172;2023-12-20T11:54:48;6.30;99.90
20182;DHT22;10250;50.756;6.172;2023-12-20T11:56:49;6.30;99.90
20182;DHT22;10250;50.756;6.172;2023-12-20T11:58:49;6.40;99.90
20182;DHT22;10250;50.756;6.172;2023-12-20T12:00:50;6.30;99.90
20182;DHT22;10250;50.756;6.172;2023-12-20T12:02:56;6.30;99.90
20182;DHT22;10250;50.756;6.172;2023-12-20T12:04:57;6.40;99.90
20182;DHT22;10250;50.756;6.172;2023-12-20T12:06:59;6.30;99.90
20182;DHT22;10250;50.756;6.172;2023-12-20T12:08:59;6.40;99.90
20182;DHT22;10250;50.756;6.172;2023-12-20T12:11:00;6.40;99.90
20182;DHT22;10250;50.756;6.172;2023-12-20T12:13:01;6.40;99.90
20182;DHT22;10250;50.756;6.172;2023-12-20T12:15:01;6.30;99.90
20182;DHT22;10250;50.756;6.172;2023-12-20T12:17:03;6.30;99.90
20182;DHT22;10250;50.756;6.172;2023-12-20T12:19:04;6.30;99.90
20182;DHT22;10250;50.756;6.172;2023-12-20T12:21:05;6.30;99.90
20182;DHT22;10250;50.756;6.172;2023-12-20T12:23:06;6.30;99.90
20182;DHT22;10250;50.756;6.172;2023-12-20T12:25:11;6.40;99.90
20182;DHT22;10250;50.756;6.172;2023-12-20T12:27:15;6.30;99.90
20182;DHT22;10250;50.756;6.172;2023-12-20T12:29:16;6.30;99.90
20182;DHT22;10250;50.756;6.172;2023-12-20T12:31:16;6.30;99.90
20182;DHT22;10250;50.756;6.172;2023-12-20T12:33:17;6.40;99.90
20182;DHT22;10250;50.756;6.172;2023-12-20T12:35:18;6.40;99.90
20182;DHT22;10250;50.756;6.172;2023-12-20T12:37:19;6.30;99.90
20182;DHT22;10250;50.756;6.172;2023-12-20T12:39:20;6.40;99.90
20182;DHT22;10250;50.756;6.172;2023-12-20T12:41:20;6.40;99.90
20182;DHT22;10250;50.756;6.172;2023-12-20T12:43:21;6.50;99.90
20182;DHT22;10250;50.756;6.172;2023-12-20T12:45:23;6.50;99.90
20182;DHT22;10250;50.756;6.172;2023-12-20T12:47:25;6.40;99.90
20182;DHT22;10250;50.756;6.172;2023-12-20T12:49:28;6.50;99.90
20182;DHT22;10250;50.756;6.172;2023-12-20T12:51:29;6.50;99.90
20182;DHT22;10250;50.756;6.172;2023-12-20T12:53:29;6.50;99.90
20182;DHT22;10250;50.756;6.172;2023-12-20T12:55:30;6.50;99.90
20182;DHT22;10250;50.756;6.172;2023-12-20T12:57:30;6.50;99.90
20182;DHT22;10250;50.756;6.172;2023-12-20T12:59:31;6.50;99.90
20182;DHT22;10250;50.756;6.172;2023-12-20T13:01:31;6.50;99.90